createdAt,value
2023-05-12T00:01:01.028Z,5.40
2023-05-12T00:03:34.373Z,4.50
2023-05-12T00:06:08.182Z,5.00
2023-05-12T00:08:41.389Z,3.50
2023-05-12T00:11:14.669Z,4.40
2023-05-12T00:13:47.924Z,3.90
2023-05-12T00:16:21.183Z,5.00
2023-05-12T00:18:54.677Z,5.90
2023-05-12T00:21:27.911Z,4.60
2023-05-12T00:24:01.193Z,5.00
2023-05-12T00:26:34.333Z,5.10
2023-05-12T00:29:07.637Z,5.10
2023-05-12T00:31:40.878Z,4.60
2023-05-12T00:34:14.044Z,5.50
2023-05-12T00:36:47.230Z,5.30
2023-05-12T00:39:20.530Z,5.40
2023-05-12T00:42:00.157Z,6.30
2023-05-12T00:44:33.481Z,5.00
2023-05-12T00:47:08.192Z,4.00
2023-05-12T00:49:42.732Z,5.10
2023-05-12T00:52:15.946Z,6.20
2023-05-12T00:54:50.963Z,4.80
2023-05-12T00:57:27.809Z,4.60
2023-05-12T01:00:02.479Z,4.70
2023-05-12T01:02:36.526Z,5.20
2023-05-12T01:05:11.742Z,5.30
2023-05-12T01:07:47.741Z,5.00
2023-05-12T01:10:25.051Z,4.20
2023-05-12T01:12:58.328Z,3.70
2023-05-12T01:15:34.625Z,4.80
2023-05-12T01:18:10.976Z,4.10
2023-05-12T01:20:48.186Z,5.10
2023-05-12T01:23:26.059Z,5.60
2023-05-12T01:26:03.068Z,4.70
2023-05-12T01:28:38.096Z,3.70
2023-05-12T01:31:13.262Z,4.20
2023-05-12T01:33:46.607Z,4.30
2023-05-12T01:36:20.035Z,4.10
2023-05-12T01:38:53.278Z,3.90
2023-05-12T01:41:26.534Z,4.40
2023-05-12T01:43:59.861Z,3.50
2023-05-12T01:46:33.431Z,4.30
2023-05-12T01:49:09.448Z,5.40
2023-05-12T01:51:42.729Z,4.70
2023-05-12T01:54:16.364Z,4.90
2023-05-12T01:56:49.720Z,4.00
2023-05-12T01:59:23.294Z,3.50
2023-05-12T02:01:57.524Z,4.60
2023-05-12T02:04:35.625Z,3.40
2023-05-12T02:07:08.947Z,5.00
2023-05-12T02:09:42.574Z,4.40
2023-05-12T02:12:15.838Z,4.60
2023-05-12T02:14:49.157Z,3.90
2023-05-12T02:17:25.150Z,4.20
2023-05-12T02:19:58.533Z,4.40
2023-05-12T02:22:31.929Z,5.10
2023-05-12T02:25:06.477Z,5.00
2023-05-12T02:27:40.839Z,4.70
2023-05-12T02:30:15.214Z,5.70
2023-05-12T02:32:48.386Z,4.90
2023-05-12T02:35:21.834Z,4.80
2023-05-12T02:37:55.097Z,4.80
2023-05-12T02:40:28.379Z,4.10
2023-05-12T02:43:01.600Z,4.40
2023-05-12T02:45:35.031Z,4.60
2023-05-12T02:48:09.135Z,4.10
2023-05-12T02:50:43.195Z,3.60
2023-05-12T02:53:16.396Z,4.70
2023-05-12T02:55:49.904Z,5.00
2023-05-12T02:58:23.415Z,4.30
2023-05-12T03:01:06.718Z,5.00
2023-05-12T03:03:43.892Z,4.70
2023-05-12T03:06:17.589Z,4.80
2023-05-12T03:08:50.990Z,5.00
2023-05-12T03:11:24.203Z,4.30
2023-05-12T03:13:57.508Z,4.20
2023-05-12T03:16:30.792Z,5.10
2023-05-12T03:19:05.375Z,3.70
2023-05-12T03:21:38.853Z,4.60
2023-05-12T03:24:12.700Z,5.00
2023-05-12T03:26:45.965Z,3.60
2023-05-12T03:29:19.173Z,4.30
2023-05-12T03:31:52.605Z,3.70
2023-05-12T03:34:25.933Z,4.70
2023-05-12T03:37:01.549Z,4.90
2023-05-12T03:39:34.842Z,4.10
2023-05-12T03:42:08.975Z,5.00
2023-05-12T03:44:42.686Z,4.70
2023-05-12T03:47:15.928Z,5.40
2023-05-12T03:49:49.321Z,5.00
2023-05-12T03:52:22.501Z,4.20
2023-05-12T03:54:56.001Z,4.80
2023-05-12T03:57:29.209Z,4.00
2023-05-12T04:00:02.613Z,4.40
2023-05-12T04:02:46.377Z,3.90
2023-05-12T04:05:20.188Z,4.30
2023-05-12T04:07:53.584Z,4.30
2023-05-12T04:10:26.831Z,4.40
2023-05-12T04:13:00.103Z,4.30
2023-05-12T04:15:33.729Z,4.70
2023-05-12T04:18:08.371Z,5.50
2023-05-12T04:20:41.787Z,5.00
2023-05-12T04:23:15.852Z,4.70
2023-05-12T04:25:49.331Z,3.40
2023-05-12T04:28:22.517Z,4.70
2023-05-12T04:30:55.856Z,5.10
2023-05-12T04:33:30.363Z,4.60
2023-05-12T04:36:05.707Z,5.50
2023-05-12T04:38:39.024Z,3.60
2023-05-12T04:41:12.186Z,5.00
2023-05-12T04:46:22.006Z,3.90
2023-05-12T04:48:55.491Z,5.20
2023-05-12T04:51:28.734Z,3.50
2023-05-12T04:54:02.394Z,5.10
2023-05-12T04:56:35.633Z,5.30
2023-05-12T04:59:08.881Z,5.40
2023-05-12T05:01:42.510Z,5.30
2023-05-12T05:04:16.626Z,5.40
2023-05-12T05:06:49.787Z,4.70
2023-05-12T05:09:22.912Z,5.60
2023-05-12T05:11:56.190Z,4.60
2023-05-12T05:14:29.442Z,5.50
2023-05-12T05:17:03.615Z,5.50
2023-05-12T05:19:50.940Z,5.60
2023-05-12T05:22:28.928Z,4.70
2023-05-12T05:25:02.114Z,5.50
2023-05-12T05:27:35.296Z,5.30
2023-05-12T05:30:10.387Z,4.80
2023-05-12T05:32:44.969Z,4.80
2023-05-12T05:35:18.807Z,4.90
2023-05-12T05:37:54.650Z,4.00
2023-05-12T05:40:30.635Z,5.10
2023-05-12T05:43:09.229Z,4.60
2023-05-12T05:45:42.641Z,5.40
2023-05-12T05:48:15.904Z,4.80
2023-05-12T05:50:49.391Z,5.40
2023-05-12T05:53:23.171Z,4.70
2023-05-12T05:55:56.830Z,4.40
2023-05-12T05:58:30.037Z,5.30
2023-05-12T06:01:05.047Z,4.60
2023-05-12T06:03:38.396Z,5.40
2023-05-12T06:06:11.760Z,4.80
2023-05-12T06:08:45.846Z,5.00
2023-05-12T06:11:19.193Z,5.00
2023-05-12T06:13:52.649Z,4.00
2023-05-12T06:16:25.825Z,3.80
2023-05-12T06:18:59.029Z,4.20
2023-05-12T06:21:33.428Z,4.70
2023-05-12T06:24:06.797Z,5.20
2023-05-12T06:26:41.665Z,6.10
2023-05-12T06:29:15.251Z,4.90
2023-05-12T06:31:48.375Z,4.80
2023-05-12T06:34:22.347Z,4.90
2023-05-12T06:36:55.885Z,5.20
2023-05-12T06:39:30.211Z,4.90
2023-05-12T06:42:03.586Z,4.80
2023-05-12T06:44:46.202Z,4.40
2023-05-12T06:47:19.391Z,4.30
2023-05-12T06:49:52.639Z,4.30
2023-05-12T06:52:25.878Z,4.00
2023-05-12T06:54:59.040Z,4.50
2023-05-12T06:57:32.379Z,4.10
2023-05-12T07:00:06.103Z,4.50
2023-05-12T07:02:39.263Z,4.20
2023-05-12T07:05:13.287Z,4.20
2023-05-12T07:07:46.672Z,4.00
2023-05-12T07:10:22.569Z,4.60
2023-05-12T07:12:55.819Z,3.50
2023-05-12T07:15:30.065Z,4.80
2023-05-12T07:18:06.351Z,4.40
2023-05-12T07:20:39.517Z,4.20
2023-05-12T07:23:25.090Z,5.10
2023-05-12T07:25:58.179Z,4.70
2023-05-12T07:28:32.355Z,4.50
2023-05-12T07:31:07.260Z,4.70
2023-05-12T07:33:40.450Z,4.00
2023-05-12T07:36:13.980Z,4.10
2023-05-12T07:38:47.161Z,4.80
2023-05-12T07:41:20.485Z,4.30
2023-05-12T07:43:53.574Z,4.50
2023-05-12T07:46:26.789Z,4.10
2023-05-12T07:49:00.250Z,4.00
2023-05-12T07:51:33.997Z,4.20
2023-05-12T07:54:07.364Z,3.90
2023-05-12T07:56:40.469Z,3.90
2023-05-12T07:59:14.432Z,4.00
2023-05-12T08:01:47.616Z,3.60
2023-05-12T08:04:20.810Z,3.80
2023-05-12T08:06:53.978Z,4.10
2023-05-12T08:09:27.071Z,3.10
2023-05-12T08:12:00.249Z,4.10
2023-05-12T08:14:33.476Z,4.70
2023-05-12T08:17:07.652Z,3.90
2023-05-12T08:19:41.973Z,4.00
2023-05-12T08:22:15.155Z,4.00
2023-05-12T08:24:48.298Z,3.50
2023-05-12T08:27:21.809Z,3.50
2023-05-12T08:29:54.930Z,3.90
2023-05-12T08:32:28.458Z,3.60
2023-05-12T08:35:03.388Z,4.00
2023-05-12T08:37:36.707Z,3.60
2023-05-12T08:40:21.455Z,3.30
2023-05-12T08:43:07.222Z,3.60
2023-05-12T08:45:42.598Z,4.10
2023-05-12T08:48:18.694Z,3.40
2023-05-12T08:50:54.674Z,4.10
2023-05-12T08:53:28.827Z,4.30
2023-05-12T08:58:42.411Z,4.20
2023-05-12T09:01:18.124Z,3.60
2023-05-12T09:03:53.972Z,4.10
2023-05-12T09:06:27.410Z,3.50
2023-05-12T09:09:01.055Z,3.80
2023-05-12T09:11:34.613Z,3.80
2023-05-12T09:14:17.053Z,3.60
2023-05-12T09:16:54.804Z,3.80
2023-05-12T09:19:28.173Z,3.40
2023-05-12T09:22:02.874Z,3.90
2023-05-12T09:24:41.110Z,3.90
2023-05-12T09:27:14.355Z,3.30
2023-05-12T09:29:59.166Z,2.90
2023-05-12T09:32:37.514Z,3.10
2023-05-12T09:35:13.022Z,3.30
2023-05-12T09:37:47.866Z,3.70
2023-05-12T09:40:21.021Z,3.30
2023-05-12T09:42:54.209Z,3.80
2023-05-12T09:45:28.117Z,3.30
2023-05-12T09:48:11.497Z,2.80
2023-05-12T09:50:51.440Z,3.50
2023-05-12T09:53:24.880Z,3.00
2023-05-12T09:55:58.060Z,2.90
2023-05-12T09:58:32.071Z,3.00
2023-05-12T10:01:21.808Z,2.90
2023-05-12T10:03:59.347Z,3.70
2023-05-12T10:06:38.400Z,3.10
2023-05-12T10:09:21.493Z,3.90
2023-05-12T10:11:56.546Z,3.60
2023-05-12T10:14:29.957Z,3.30
2023-05-12T10:17:03.492Z,3.70
2023-05-12T10:19:38.772Z,3.20
2023-05-12T10:22:13.947Z,2.80
2023-05-12T10:24:50.242Z,2.90
2023-05-12T10:27:24.769Z,3.20
2023-05-12T10:30:02.059Z,2.80
2023-05-12T10:32:35.373Z,3.00
2023-05-12T10:35:16.631Z,2.90
2023-05-12T10:37:50.430Z,2.90
2023-05-12T10:40:28.804Z,3.40
2023-05-12T10:43:03.959Z,2.80
2023-05-12T10:45:41.710Z,3.10
2023-05-12T10:48:19.600Z,3.10
2023-05-12T10:50:58.334Z,2.70
2023-05-12T10:53:48.228Z,3.00
2023-05-12T10:56:29.646Z,3.10
2023-05-12T10:59:34.530Z,2.60
2023-05-12T11:02:18.439Z,2.60
2023-05-12T11:04:56.484Z,2.40
2023-05-12T11:07:33.094Z,3.10
2023-05-12T11:10:08.494Z,2.80
2023-05-12T11:12:43.598Z,2.90
2023-05-12T11:15:18.366Z,3.10
2023-05-12T11:17:51.772Z,3.20
2023-05-12T11:20:30.862Z,2.90
2023-05-12T11:23:04.491Z,2.70
2023-05-12T11:25:38.398Z,2.30
2023-05-12T11:28:15.020Z,2.30
2023-05-12T11:30:55.457Z,2.60
2023-05-12T11:33:29.091Z,2.40
2023-05-12T11:36:07.686Z,2.70
2023-05-12T11:38:40.979Z,2.90
2023-05-12T11:41:14.194Z,3.10
2023-05-12T11:43:47.335Z,3.10
2023-05-12T11:46:29.158Z,2.60
2023-05-12T11:49:04.156Z,2.70
2023-05-12T11:51:37.566Z,2.40
2023-05-12T11:54:11.692Z,2.60
2023-05-12T11:56:52.665Z,2.80
2023-05-12T11:59:34.283Z,2.50
2023-05-12T12:02:07.962Z,2.90
2023-05-12T12:04:43.150Z,2.10
2023-05-12T12:07:16.487Z,2.70
2023-05-12T12:09:49.630Z,2.50
2023-05-12T12:12:22.900Z,3.10
2023-05-12T12:14:59.977Z,2.70
2023-05-12T12:17:33.254Z,2.50
2023-05-12T12:20:07.905Z,2.50
2023-05-12T12:22:41.255Z,1.90
2023-05-12T12:25:14.796Z,2.50
2023-05-12T12:27:48.214Z,2.50
2023-05-12T12:30:21.584Z,2.30
2023-05-12T12:32:54.834Z,2.70
2023-05-12T12:35:28.282Z,2.90
2023-05-12T12:38:01.456Z,2.50
2023-05-12T12:40:34.795Z,2.10
2023-05-12T12:45:55.536Z,2.20
2023-05-12T12:48:28.978Z,2.40
2023-05-12T12:51:02.979Z,2.80
2023-05-12T12:53:37.013Z,2.40
2023-05-12T12:56:10.805Z,1.80
2023-05-12T12:58:43.944Z,1.90
2023-05-12T13:01:17.170Z,2.30
2023-05-12T13:03:50.399Z,2.10
2023-05-12T13:06:23.679Z,2.20
2023-05-12T13:08:57.200Z,2.30
2023-05-12T13:11:30.629Z,2.10
2023-05-12T13:14:04.554Z,2.00
2023-05-12T13:16:37.837Z,2.00
2023-05-12T13:19:11.264Z,2.00
2023-05-12T13:21:44.665Z,1.90
2023-05-12T13:24:17.957Z,2.30
2023-05-12T13:26:51.643Z,2.50
2023-05-12T13:29:25.085Z,2.10
2023-05-12T13:31:58.327Z,2.50
2023-05-12T13:34:31.947Z,2.50
2023-05-12T13:37:05.210Z,2.70
2023-05-12T13:39:38.410Z,2.10
2023-05-12T13:42:21.745Z,2.10
2023-05-12T13:44:54.870Z,2.20
2023-05-12T13:47:28.346Z,2.20
2023-05-12T13:50:01.580Z,2.40
2023-05-12T13:52:34.837Z,2.50
2023-05-12T13:55:09.249Z,2.30
2023-05-12T13:57:42.400Z,1.90
2023-05-12T14:00:18.378Z,2.30
2023-05-12T14:02:51.827Z,2.10
2023-05-12T14:05:25.418Z,2.30
2023-05-12T14:07:59.485Z,2.40
2023-05-12T14:10:33.050Z,2.40
2023-05-12T14:13:08.513Z,2.10
2023-05-12T14:15:49.156Z,1.40
2023-05-12T14:18:23.445Z,2.00
2023-05-12T14:20:57.052Z,2.00
2023-05-12T14:23:30.338Z,1.90
2023-05-12T14:26:05.036Z,2.10
2023-05-12T14:28:39.152Z,2.10
2023-05-12T14:31:12.786Z,2.10
2023-05-12T14:33:45.995Z,1.70
2023-05-12T14:36:19.106Z,2.30
2023-05-12T14:38:52.533Z,2.30
2023-05-12T14:41:25.823Z,2.00
2023-05-12T14:43:59.003Z,1.80
2023-05-12T14:46:32.218Z,2.10
2023-05-12T14:49:11.206Z,2.10
2023-05-12T14:51:44.445Z,1.80
2023-05-12T14:54:25.321Z,2.10
2023-05-12T14:56:59.403Z,2.20
2023-05-12T14:59:34.554Z,2.00
2023-05-12T15:02:08.302Z,2.50
2023-05-12T15:04:41.509Z,2.60
2023-05-12T15:07:14.887Z,1.90
2023-05-12T15:09:48.077Z,2.10
2023-05-12T15:12:21.695Z,2.00
2023-05-12T15:14:56.136Z,2.10
2023-05-12T15:17:30.717Z,2.10
2023-05-12T15:20:04.573Z,2.20
2023-05-12T15:22:38.093Z,2.20
2023-05-12T15:25:13.520Z,2.20
2023-05-12T15:27:47.062Z,1.90
2023-05-12T15:30:20.694Z,2.10
2023-05-12T15:32:53.848Z,2.40
2023-05-12T15:35:27.682Z,2.00
2023-05-12T15:38:00.964Z,1.90
2023-05-12T15:40:34.411Z,2.00
2023-05-12T15:43:07.766Z,1.90
2023-05-12T15:45:40.861Z,2.50
2023-05-12T15:48:14.032Z,2.00
2023-05-12T15:50:47.330Z,2.00
2023-05-12T15:53:20.467Z,2.30
2023-05-12T15:56:03.338Z,2.50
2023-05-12T15:58:36.611Z,1.60
2023-05-12T16:01:09.892Z,1.70
2023-05-12T16:03:43.207Z,2.10
2023-05-12T16:06:20.011Z,2.50
2023-05-12T16:08:54.136Z,2.30
2023-05-12T16:11:27.431Z,2.30
2023-05-12T16:14:02.278Z,2.50
2023-05-12T16:16:35.715Z,2.20
2023-05-12T16:19:09.096Z,2.90
2023-05-12T16:21:44.198Z,2.60
2023-05-12T16:24:17.633Z,2.40
2023-05-12T16:26:50.899Z,2.30
2023-05-12T16:29:24.091Z,2.80
2023-05-12T16:31:57.401Z,2.30
2023-05-12T16:34:30.754Z,2.20
2023-05-12T16:37:04.512Z,2.40
2023-05-12T16:39:37.750Z,2.50
2023-05-12T16:42:11.851Z,2.00
2023-05-12T16:44:45.079Z,2.40
2023-05-12T16:47:18.265Z,2.10
2023-05-12T16:49:54.608Z,3.20
2023-05-12T16:52:27.992Z,2.50
2023-05-12T16:55:01.354Z,2.70
2023-05-12T16:57:34.687Z,2.40
2023-05-12T17:00:10.602Z,2.50
2023-05-12T17:02:43.836Z,2.80
2023-05-12T17:05:17.163Z,2.20
2023-05-12T17:07:51.039Z,2.60
2023-05-12T17:10:24.275Z,3.10
2023-05-12T17:12:58.509Z,2.20
2023-05-12T17:15:32.003Z,2.60
2023-05-12T17:18:05.882Z,2.40
2023-05-12T17:20:39.143Z,2.20
2023-05-12T17:23:12.798Z,2.50
2023-05-12T17:25:46.036Z,2.50
2023-05-12T17:28:19.399Z,2.20
2023-05-12T17:30:52.646Z,2.20
2023-05-12T17:33:25.799Z,2.40
2023-05-12T17:36:11.462Z,2.50
2023-05-12T17:38:46.253Z,2.40
2023-05-12T17:41:19.893Z,2.20
2023-05-12T17:43:53.789Z,2.40
2023-05-12T17:46:27.619Z,1.70
2023-05-12T17:49:01.144Z,2.20
2023-05-12T17:51:35.339Z,1.60
2023-05-12T17:54:08.714Z,2.00
2023-05-12T17:56:41.899Z,2.50
2023-05-12T17:59:15.091Z,2.50
2023-05-12T18:01:48.343Z,2.40
2023-05-12T18:04:23.096Z,2.30
2023-05-12T18:06:57.242Z,2.60
2023-05-12T18:09:30.432Z,2.50
2023-05-12T18:12:03.588Z,2.70
2023-05-12T18:14:36.774Z,2.50
2023-05-12T18:17:10.161Z,2.90
2023-05-12T18:19:43.352Z,3.10
2023-05-12T18:22:17.582Z,2.70
2023-05-12T18:24:52.309Z,2.30
2023-05-12T18:27:25.548Z,2.80
2023-05-12T18:29:58.681Z,2.80
2023-05-12T18:32:32.865Z,2.70
2023-05-12T18:35:07.598Z,2.50
2023-05-12T18:37:40.768Z,3.10
2023-05-12T18:40:14.964Z,2.90
2023-05-12T18:42:48.092Z,2.40
2023-05-12T18:45:22.854Z,2.00
2023-05-12T18:47:56.218Z,2.80
2023-05-12T18:50:29.604Z,2.60
2023-05-12T18:53:02.870Z,3.10
2023-05-12T18:55:36.056Z,3.20
2023-05-12T18:58:09.231Z,3.20
2023-05-12T19:00:42.381Z,3.20
2023-05-12T19:03:15.573Z,2.90
2023-05-12T19:05:49.194Z,3.60
2023-05-12T19:08:22.586Z,2.30
2023-05-12T19:10:55.856Z,2.90
2023-05-12T19:13:29.079Z,2.70
2023-05-12T19:16:02.288Z,3.00
2023-05-12T19:18:35.516Z,2.60
2023-05-12T19:21:08.876Z,3.40
2023-05-12T19:23:42.088Z,2.70
2023-05-12T19:26:15.343Z,2.80
2023-05-12T19:28:48.458Z,3.90
2023-05-12T19:31:22.127Z,4.30
2023-05-12T19:33:55.799Z,2.30
2023-05-12T19:36:29.346Z,3.50
2023-05-12T19:39:02.460Z,4.00
2023-05-12T19:41:35.620Z,4.10
2023-05-12T19:44:08.880Z,4.50
2023-05-12T19:46:42.129Z,3.90
2023-05-12T19:49:15.672Z,3.70
2023-05-12T19:51:51.254Z,3.20
2023-05-12T19:54:24.506Z,3.40
2023-05-12T19:56:57.664Z,3.50
2023-05-12T19:59:30.775Z,3.70
2023-05-12T20:02:04.009Z,3.90
2023-05-12T20:04:36.957Z,3.10
2023-05-12T20:07:10.582Z,3.30
2023-05-12T20:09:43.788Z,3.70
2023-05-12T20:12:17.000Z,3.80
2023-05-12T20:14:50.423Z,3.90
2023-05-12T20:17:23.634Z,3.70
2023-05-12T20:19:57.077Z,4.00
2023-05-12T20:22:30.196Z,2.90
2023-05-12T20:25:04.557Z,2.90
2023-05-12T20:27:37.797Z,3.00
2023-05-12T20:30:13.460Z,3.10
2023-05-12T20:32:48.758Z,4.00
2023-05-12T20:35:22.270Z,4.70
2023-05-12T20:37:55.890Z,4.80
2023-05-12T20:40:29.082Z,3.80
2023-05-12T20:43:02.173Z,4.30
2023-05-12T20:45:35.863Z,3.30
2023-05-12T20:48:09.851Z,4.40
2023-05-12T20:50:43.784Z,4.20
2023-05-12T20:53:16.984Z,3.90
2023-05-12T20:55:50.191Z,4.50
2023-05-12T20:58:23.342Z,3.80
2023-05-12T21:00:56.663Z,3.90
2023-05-12T21:03:29.904Z,3.70
2023-05-12T21:06:03.130Z,3.40
2023-05-12T21:08:36.324Z,3.30
2023-05-12T21:11:18.125Z,3.50
2023-05-12T21:13:51.555Z,4.00
2023-05-12T21:16:24.828Z,3.80
2023-05-12T21:18:58.254Z,3.70
2023-05-12T21:21:31.712Z,3.70
2023-05-12T21:24:05.153Z,3.40
2023-05-12T21:26:39.093Z,3.40
2023-05-12T21:29:12.325Z,4.50
2023-05-12T21:31:47.406Z,4.20
2023-05-12T21:34:21.047Z,4.00
2023-05-12T21:36:54.821Z,3.50
2023-05-12T21:39:28.571Z,3.90
2023-05-12T21:42:01.876Z,4.00
2023-05-12T21:44:35.059Z,3.20
2023-05-12T21:47:08.707Z,3.50
2023-05-12T21:49:42.316Z,3.60
2023-05-12T21:52:16.038Z,4.30
2023-05-12T21:54:49.237Z,3.70
2023-05-12T21:57:22.424Z,4.70
2023-05-12T21:59:56.290Z,4.40
2023-05-12T22:02:29.551Z,3.60
2023-05-12T22:05:02.853Z,4.30
2023-05-12T22:07:36.020Z,3.40
2023-05-12T22:10:10.406Z,3.90
2023-05-12T22:12:43.881Z,3.30
2023-05-12T22:15:17.967Z,4.10
2023-05-12T22:17:51.150Z,3.40
2023-05-12T22:20:24.361Z,3.30
2023-05-12T22:22:57.628Z,4.50
2023-05-12T22:25:30.830Z,4.10
2023-05-12T22:28:05.918Z,4.10
2023-05-12T22:30:41.620Z,3.70
2023-05-12T22:33:14.857Z,3.50
2023-05-12T22:35:48.009Z,4.10
2023-05-12T22:38:21.232Z,3.50
2023-05-12T22:40:54.434Z,3.60
2023-05-12T22:43:28.084Z,4.10
2023-05-12T22:46:01.241Z,4.50
2023-05-12T22:48:39.256Z,3.50
2023-05-12T22:51:12.880Z,3.70
2023-05-12T22:53:46.040Z,3.60
2023-05-12T22:56:19.178Z,3.60
2023-05-12T22:58:52.429Z,3.90
2023-05-12T23:01:25.735Z,2.90
2023-05-12T23:03:59.073Z,3.90
2023-05-12T23:06:32.467Z,4.40
2023-05-12T23:09:05.702Z,4.60
2023-05-12T23:11:38.915Z,3.80
2023-05-12T23:14:12.746Z,3.60
2023-05-12T23:16:48.012Z,4.70
2023-05-12T23:19:21.239Z,5.10
2023-05-12T23:21:55.028Z,4.30
2023-05-12T23:24:28.213Z,3.50
2023-05-12T23:27:01.476Z,4.20
2023-05-12T23:29:35.210Z,3.20
2023-05-12T23:32:09.136Z,4.20
2023-05-12T23:34:42.825Z,4.80
2023-05-12T23:37:16.042Z,4.80
2023-05-12T23:39:49.204Z,4.40
2023-05-12T23:42:22.415Z,4.60
2023-05-12T23:44:55.847Z,5.10
2023-05-12T23:47:29.168Z,5.10
2023-05-12T23:50:02.333Z,4.20
2023-05-12T23:52:35.521Z,4.60
2023-05-12T23:55:11.661Z,5.00
2023-05-12T23:57:44.816Z,4.80
